Time;durP1;ratioP1;P1;durP2;ratioP2;P2;SDS_P1;SDS_P2;PMS_P1;PMS_P2;Temp;Humidity;BMP_temperature;BMP_pressure;BME280_temperature;BME280_humidity;BME280_pressure;Samples;Min_cycle;Max_cycle;Signal;HPM_P1;HPM_P2
2023/04/17 00:01:21;;;;;;;18.92;15.45;;;7.80;99.90;;;;;;5073471;28;20058;-83
2023/04/17 00:03:47;;;;;;;20.77;16.15;;;7.80;99.90;;;;;;5072570;28;20612;-83
2023/04/17 00:06:13;;;;;;;22.02;17.17;;;7.80;99.90;;;;;;5086789;28;20592;-83
2023/04/17 00:08:39;;;;;;;20.77;15.63;;;7.80;99.90;;;;;;5087321;28;20028;-83
2023/04/17 00:11:05;;;;;;;21.35;15.68;;;7.70;99.90;;;;;;5088002;28;20035;-84
2023/04/17 00:13:30;;;;;;;21.10;16.13;;;7.70;99.90;;;;;;5076948;28;20020;-83
2023/04/17 00:15:56;;;;;;;25.65;17.63;;;7.70;99.90;;;;;;5085233;28;20020;-82
2023/04/17 00:18:22;;;;;;;23.25;16.45;;;7.70;99.90;;;;;;5079731;28;20051;-83
2023/04/17 00:20:47;;;;;;;24.83;18.38;;;7.60;99.90;;;;;;5076128;28;20028;-82
2023/04/17 00:23:13;;;;;;;20.95;15.93;;;7.60;99.90;;;;;;5081059;28;20138;-82
2023/04/17 00:25:39;;;;;;;24.30;17.17;;;7.60;99.90;;;;;;5078574;28;20073;-84
2023/04/17 00:28:04;;;;;;;22.73;18.02;;;7.60;99.90;;;;;;5075681;28;20034;-83
2023/04/17 00:30:30;;;;;;;18.70;15.32;;;7.60;99.90;;;;;;5074257;28;20028;-82
2023/04/17 00:32:55;;;;;;;25.38;18.15;;;7.60;99.90;;;;;;5084884;28;20486;-83
2023/04/17 00:35:21;;;;;;;20.20;16.83;;;7.60;99.90;;;;;;5075266;28;20139;-83
2023/04/17 00:37:47;;;;;;;18.75;15.75;;;7.60;99.90;;;;;;5084640;28;20059;-83
2023/04/17 00:40:13;;;;;;;22.42;16.50;;;7.60;99.90;;;;;;5090826;28;20127;-84
2023/04/17 00:42:38;;;;;;;20.35;15.45;;;7.60;99.90;;;;;;5075153;28;20045;-83
2023/04/17 00:45:04;;;;;;;19.40;14.38;;;7.60;99.90;;;;;;5089509;28;20658;-83
2023/04/17 00:47:31;;;;;;;20.30;15.65;;;7.60;99.90;;;;;;5084371;28;20046;-83
2023/04/17 00:49:57;;;;;;;21.23;16.95;;;7.60;99.90;;;;;;5087319;28;20530;-82
2023/04/17 00:52:31;;;;;;;24.05;17.48;;;7.50;99.90;;;;;;5079828;28;20032;-84
2023/04/17 00:54:58;;;;;;;25.42;17.42;;;7.50;99.90;;;;;;5077378;28;20037;-83
2023/04/17 00:57:24;;;;;;;24.23;17.27;;;7.50;99.90;;;;;;5074920;28;20658;-83
2023/04/17 00:59:50;;;;;;;24.92;17.60;;;7.50;99.90;;;;;;5076390;28;20031;-83
2023/04/17 01:02:17;;;;;;;22.65;17.02;;;7.50;99.90;;;;;;5087725;28;20036;-84
2023/04/17 01:04:42;;;;;;;23.90;17.95;;;7.50;99.90;;;;;;5089378;28;20082;-83
2023/04/17 01:07:08;;;;;;;24.15;17.08;;;7.40;99.90;;;;;;5086771;28;20032;-83
2023/04/17 01:09:34;;;;;;;24.00;17.75;;;7.40;99.90;;;;;;5078838;28;20039;-83
2023/04/17 01:12:15;;;;;;;22.65;18.10;;;7.40;99.90;;;;;;5084912;28;20055;-83
2023/04/17 01:14:41;;;;;;;23.30;16.85;;;7.40;99.90;;;;;;5090870;28;20660;-83
2023/04/17 01:17:09;;;;;;;22.70;15.95;;;7.40;99.90;;;;;;5086836;28;20035;-83
2023/04/17 01:19:35;;;;;;;29.50;18.02;;;7.40;99.90;;;;;;5087291;28;20055;-83
2023/04/17 01:22:00;;;;;;;22.85;18.08;;;7.40;99.90;;;;;;5075721;28;20024;-82
2023/04/17 01:24:26;;;;;;;25.80;18.85;;;7.40;99.90;;;;;;5079958;28;20012;-83
2023/04/17 01:26:51;;;;;;;30.85;18.83;;;7.30;99.90;;;;;;5089892;28;20021;-83
2023/04/17 01:29:17;;;;;;;24.63;18.27;;;7.30;99.90;;;;;;5075413;28;20024;-83
2023/04/17 01:31:42;;;;;;;26.73;18.38;;;7.30;99.90;;;;;;5086370;28;20040;-84
2023/04/17 01:34:08;;;;;;;20.85;17.15;;;7.30;99.90;;;;;;5088464;28;20032;-83
2023/04/17 01:36:33;;;;;;;28.13;19.48;;;7.20;99.90;;;;;;5083739;28;20035;-83
2023/04/17 01:38:59;;;;;;;24.42;17.80;;;7.30;99.90;;;;;;5080614;28;20505;-84
2023/04/17 01:41:24;;;;;;;24.63;18.60;;;7.20;99.90;;;;;;5080544;28;20012;-83
2023/04/17 01:43:50;;;;;;;19.35;15.45;;;7.20;99.90;;;;;;5068962;28;20030;-81
2023/04/17 01:46:16;;;;;;;22.85;17.38;;;7.20;99.90;;;;;;5079363;28;20021;-82
2023/04/17 01:48:41;;;;;;;25.20;17.95;;;7.20;99.90;;;;;;5070689;28;20031;-81
2023/04/17 01:51:07;;;;;;;20.15;15.88;;;7.10;99.90;;;;;;5072996;28;20398;-82
2023/04/17 01:53:33;;;;;;;19.95;15.38;;;7.10;99.90;;;;;;5081633;28;20032;-82
2023/04/17 01:56:00;;;;;;;23.35;15.90;;;7.10;99.90;;;;;;5079337;28;20059;-82
2023/04/17 01:58:26;;;;;;;21.80;18.55;;;7.10;99.90;;;;;;5074890;28;20024;-82
2023/04/17 02:00:51;;;;;;;21.45;16.55;;;7.10;99.90;;;;;;5075836;28;20028;-83
2023/04/17 02:03:17;;;;;;;24.70;17.42;;;7.10;99.90;;;;;;5074920;28;20095;-81
2023/04/17 02:05:46;;;;;;;24.15;17.73;;;7.10;99.90;;;;;;5089625;28;20395;-82
2023/04/17 02:08:13;;;;;;;20.45;15.50;;;7.00;99.90;;;;;;5074598;28;20069;-84
2023/04/17 02:10:42;;;;;;;20.27;15.77;;;7.00;99.90;;;;;;5081656;28;20590;-82
2023/04/17 02:13:08;;;;;;;23.05;17.42;;;7.00;99.90;;;;;;5069755;28;20472;-83
2023/04/17 02:15:35;;;;;;;18.80;15.38;;;7.00;99.90;;;;;;5080993;28;20028;-84
2023/04/17 02:18:02;;;;;;;23.88;16.65;;;7.00;99.90;;;;;;5067579;28;20036;-84
2023/04/17 02:20:27;;;;;;;21.77;17.25;;;6.90;99.90;;;;;;5076313;28;20495;-81
2023/04/17 02:22:54;;;;;;;23.50;16.75;;;6.90;99.90;;;;;;5073010;28;20111;-84
2023/04/17 02:25:19;;;;;;;22.77;17.35;;;6.90;99.90;;;;;;5074382;28;20026;-83
2023/04/17 02:27:45;;;;;;;20.92;17.05;;;6.80;99.90;;;;;;5069261;28;20539;-83
2023/04/17 02:30:11;;;;;;;20.85;17.13;;;6.80;99.90;;;;;;5082247;28;20452;-83
2023/04/17 02:32:36;;;;;;;23.65;17.08;;;6.80;99.90;;;;;;5073159;28;20036;-84
2023/04/17 02:35:02;;;;;;;24.88;17.33;;;6.80;99.90;;;;;;5066890;28;20058;-82
2023/04/17 02:37:28;;;;;;;24.08;18.58;;;6.80;99.90;;;;;;5077563;28;20043;-82
2023/04/17 02:39:54;;;;;;;23.60;18.77;;;6.70;99.90;;;;;;5075937;28;20432;-84
2023/04/17 02:42:20;;;;;;;25.48;17.60;;;6.70;99.90;;;;;;5087455;28;20330;-82
2023/04/17 02:44:45;;;;;;;26.40;19.30;;;6.70;99.90;;;;;;5079578;28;20034;-82
2023/04/17 02:47:11;;;;;;;21.23;16.75;;;6.70;99.90;;;;;;5075652;28;20649;-83
2023/04/17 02:49:37;;;;;;;22.23;16.35;;;6.60;99.90;;;;;;5067903;28;20122;-83
2023/04/17 02:52:03;;;;;;;21.23;17.52;;;6.70;99.90;;;;;;5073589;28;20029;-83
2023/04/17 02:54:29;;;;;;;23.85;18.13;;;6.70;99.90;;;;;;5073713;28;20096;-80
2023/04/17 02:56:57;;;;;;;24.77;18.83;;;6.70;99.90;;;;;;5079973;28;20032;-82
2023/04/17 02:59:26;;;;;;;21.30;17.73;;;6.60;99.90;;;;;;5085711;28;20138;-81
2023/04/17 03:01:52;;;;;;;23.45;19.20;;;6.70;99.90;;;;;;5080064;28;20029;-82
2023/04/17 03:04:18;;;;;;;22.73;18.02;;;6.70;99.90;;;;;;5073257;28;20019;-83
2023/04/17 03:06:43;;;;;;;25.20;19.60;;;6.60;99.90;;;;;;5078421;28;20031;-82
2023/04/17 03:09:13;;;;;;;23.50;17.77;;;6.60;99.90;;;;;;5064519;28;20031;-83
2023/04/17 03:11:39;;;;;;;24.25;18.92;;;6.60;99.90;;;;;;5082466;28;20024;-82
2023/04/17 03:14:04;;;;;;;21.00;16.63;;;6.60;99.90;;;;;;5069422;28;20029;-80
2023/04/17 03:16:30;;;;;;;25.35;19.42;;;6.60;99.90;;;;;;5078577;28;20035;-84
2023/04/17 03:18:55;;;;;;;27.67;18.58;;;6.60;99.90;;;;;;5073335;28;20055;-82
2023/04/17 03:21:21;;;;;;;27.90;20.33;;;6.60;99.90;;;;;;5073301;28;20046;-84
2023/04/17 03:23:46;;;;;;;27.98;21.80;;;6.60;99.90;;;;;;5070990;28;20016;-83
2023/04/17 03:26:12;;;;;;;28.20;20.85;;;6.60;99.90;;;;;;5078699;28;20055;-83
2023/04/17 03:28:38;;;;;;;33.33;22.33;;;6.60;99.90;;;;;;5072267;28;20048;-82
2023/04/17 03:31:05;;;;;;;28.40;20.65;;;6.60;99.90;;;;;;5077974;28;20399;-82
2023/04/17 03:33:30;;;;;;;27.90;21.25;;;6.60;99.90;;;;;;5074570;28;20103;-83
2023/04/17 03:35:56;;;;;;;29.65;22.58;;;6.60;99.90;;;;;;5079995;28;20082;-83
2023/04/17 03:38:21;;;;;;;30.77;21.83;;;6.60;99.90;;;;;;5074106;28;20027;-81
2023/04/17 03:40:47;;;;;;;35.83;23.95;;;6.60;99.90;;;;;;5093000;28;20028;-81
2023/04/17 03:43:13;;;;;;;31.63;23.10;;;6.60;99.90;;;;;;5093072;28;20023;-81
2023/04/17 03:45:41;;;;;;;36.10;23.73;;;6.60;99.90;;;;;;5086889;28;20025;-84
2023/04/17 03:48:07;;;;;;;33.28;23.90;;;6.60;99.90;;;;;;5087782;28;20021;-82
2023/04/17 03:50:32;;;;;;;36.60;24.75;;;6.60;99.90;;;;;;5074175;28;20518;-82
2023/04/17 03:52:58;;;;;;;36.70;25.13;;;6.60;99.90;;;;;;5074101;28;20028;-81
2023/04/17 03:55:23;;;;;;;36.05;25.15;;;6.60;99.90;;;;;;5074639;28;20033;-82
2023/04/17 03:57:50;;;;;;;38.60;25.85;;;6.60;99.90;;;;;;5075474;28;20033;-82
2023/04/17 04:00:16;;;;;;;37.38;27.45;;;6.60;99.90;;;;;;5073913;28;20024;-84
2023/04/17 04:02:42;;;;;;;35.50;26.02;;;6.50;99.90;;;;;;5064601;28;20112;-84
2023/04/17 04:05:07;;;;;;;37.50;26.50;;;6.60;99.90;;;;;;5073164;28;20021;-84
2023/04/17 04:07:33;;;;;;;37.22;26.88;;;6.60;99.90;;;;;;5080859;28;20382;-84
2023/04/17 04:09:58;;;;;;;40.10;26.25;;;6.60;99.90;;;;;;5075819;28;20038;-82
2023/04/17 04:12:24;;;;;;;39.58;27.40;;;6.60;99.90;;;;;;5077923;28;20056;-83
2023/04/17 04:14:50;;;;;;;40.55;26.83;;;6.50;99.90;;;;;;5079728;28;20427;-83
2023/04/17 04:17:15;;;;;;;34.75;26.52;;;6.60;99.90;;;;;;5075155;28;20025;-84
2023/04/17 04:19:42;;;;;;;41.95;27.80;;;6.50;99.90;;;;;;5074578;28;20028;-82
2023/04/17 04:22:09;;;;;;;42.90;27.10;;;6.50;99.90;;;;;;5081405;28;20024;-82
2023/04/17 04:24:34;;;;;;;39.55;26.70;;;6.50;99.90;;;;;;5085371;28;20024;-82
2023/04/17 04:27:03;;;;;;;41.50;25.77;;;6.50;99.90;;;;;;5079445;28;20037;-83
2023/04/17 04:29:30;;;;;;;32.17;24.77;;;6.50;99.90;;;;;;5068105;28;20029;-83
2023/04/17 04:31:55;;;;;;;38.70;26.77;;;6.50;99.90;;;;;;5087685;28;20068;-81
2023/04/17 04:34:24;;;;;;;33.90;24.83;;;6.50;99.90;;;;;;5075597;28;20522;-82
2023/04/17 04:36:49;;;;;;;36.90;23.83;;;6.50;99.90;;;;;;5078730;28;20040;-83
2023/04/17 04:39:19;;;;;;;37.25;24.83;;;6.50;99.90;;;;;;5081360;28;20020;-83
2023/04/17 04:41:45;;;;;;;34.25;24.63;;;6.50;99.90;;;;;;5079980;28;20073;-82
2023/04/17 04:44:11;;;;;;;30.13;21.67;;;6.50;99.90;;;;;;5079703;28;20030;-82
2023/04/17 04:46:37;;;;;;;27.65;21.15;;;6.50;99.90;;;;;;5081252;28;20107;-83
2023/04/17 04:49:02;;;;;;;32.97;23.45;;;6.50;99.90;;;;;;5099501;28;20042;-82
2023/04/17 04:51:29;;;;;;;35.58;24.20;;;6.50;99.90;;;;;;5086837;28;20063;-83
2023/04/17 04:53:54;;;;;;;37.28;26.05;;;6.50;99.90;;;;;;5083035;28;20142;-83
2023/04/17 04:56:20;;;;;;;38.25;26.13;;;6.50;99.90;;;;;;5076166;28;20044;-81
2023/04/17 04:58:45;;;;;;;38.28;26.20;;;6.60;99.90;;;;;;5076346;28;20029;-83
2023/04/17 05:01:11;;;;;;;38.58;26.60;;;6.60;99.90;;;;;;5077038;28;20028;-83
2023/04/17 05:03:37;;;;;;;43.40;28.75;;;6.60;99.90;;;;;;5081961;28;20053;-82
2023/04/17 05:06:03;;;;;;;41.03;28.52;;;6.60;99.90;;;;;;5072069;28;20067;-82
2023/04/17 05:08:28;;;;;;;41.67;27.40;;;6.60;99.90;;;;;;5080270;28;20468;-82
2023/04/17 05:10:54;;;;;;;38.47;26.40;;;6.60;99.90;;;;;;5078827;28;20031;-82
2023/04/17 05:13:20;;;;;;;40.53;28.70;;;6.60;99.90;;;;;;5073337;28;20115;-82
2023/04/17 05:15:45;;;;;;;35.80;26.42;;;6.60;99.90;;;;;;5065991;28;20028;-82
2023/04/17 05:18:11;;;;;;;38.60;27.73;;;6.60;99.90;;;;;;5084748;28;20360;-83
2023/04/17 05:20:36;;;;;;;40.90;27.42;;;6.70;99.90;;;;;;5074148;28;20505;-83
2023/04/17 05:23:02;;;;;;;38.22;26.58;;;6.70;99.90;;;;;;5073878;28;20032;-84
2023/04/17 05:25:28;;;;;;;41.65;28.20;;;6.70;99.90;;;;;;5069088;28;20052;-82
2023/04/17 05:27:53;;;;;;;40.85;28.15;;;6.70;99.90;;;;;;5080764;28;20021;-84
2023/04/17 05:30:19;;;;;;;43.72;30.52;;;6.80;99.90;;;;;;5071620;28;20096;-84
2023/04/17 05:32:45;;;;;;;42.95;28.55;;;6.80;99.90;;;;;;5078748;28;20620;-82
2023/04/17 05:35:10;;;;;;;43.40;28.73;;;6.80;99.90;;;;;;5083614;28;20020;-84
2023/04/17 05:37:36;;;;;;;43.70;28.23;;;6.80;99.90;;;;;;5070999;28;20059;-83
2023/04/17 05:40:05;;;;;;;42.35;28.90;;;6.90;99.90;;;;;;5078514;28;20033;-84
2023/04/17 05:42:31;;;;;;;44.47;28.90;;;6.90;99.90;;;;;;5070118;28;20028;-85
2023/04/17 05:44:56;;;;;;;36.53;26.73;;;6.90;99.90;;;;;;5073866;28;20495;-81
2023/04/17 05:47:22;;;;;;;40.78;27.17;;;7.00;99.90;;;;;;5064975;28;20052;-83
2023/04/17 05:49:50;;;;;;;42.63;29.13;;;7.00;99.90;;;;;;5077424;28;20033;-82
2023/04/17 05:52:15;;;;;;;39.95;26.48;;;7.00;99.90;;;;;;5073332;28;20111;-85
2023/04/17 05:54:41;;;;;;;40.63;28.58;;;7.10;99.90;;;;;;5080816;28;20352;-82
2023/04/17 05:57:06;;;;;;;41.10;27.42;;;7.20;99.90;;;;;;5067140;28;20032;-85
2023/04/17 05:59:32;;;;;;;43.92;29.20;;;7.20;99.90;;;;;;5074111;28;20073;-82
2023/04/17 06:01:58;;;;;;;41.95;27.30;;;7.30;99.90;;;;;;5079249;28;20032;-85
2023/04/17 06:04:24;;;;;;;41.88;28.90;;;7.30;99.90;;;;;;5071381;28;20028;-84
2023/04/17 06:06:50;;;;;;;40.70;27.42;;;7.40;99.90;;;;;;5068546;28;20032;-84
2023/04/17 06:09:15;;;;;;;39.95;27.63;;;7.40;99.90;;;;;;5066578;28;20028;-82
2023/04/17 06:11:41;;;;;;;43.08;26.75;;;7.50;99.90;;;;;;5065500;28;20442;-84
2023/04/17 06:14:07;;;;;;;41.30;27.08;;;7.50;99.90;;;;;;5073144;28;20033;-84
2023/04/17 06:16:32;;;;;;;43.40;28.20;;;7.60;99.90;;;;;;5072580;28;20438;-84
2023/04/17 06:18:58;;;;;;;40.47;27.35;;;7.70;99.90;;;;;;5072870;28;20047;-85
2023/04/17 06:21:23;;;;;;;39.70;26.33;;;7.80;99.90;;;;;;5083129;28;20020;-85
2023/04/17 06:23:49;;;;;;;41.28;25.98;;;7.80;99.90;;;;;;5074981;28;20075;-82
2023/04/17 06:26:15;;;;;;;34.85;24.13;;;7.90;99.90;;;;;;5085403;28;20015;-82
2023/04/17 06:28:40;;;;;;;35.53;25.33;;;8.00;99.90;;;;;;5067856;28;20101;-84
2023/04/17 06:31:06;;;;;;;31.67;23.70;;;8.00;99.90;;;;;;5058221;28;20066;-83
2023/04/17 06:33:31;;;;;;;30.83;23.35;;;8.10;99.90;;;;;;5066214;28;20032;-85
2023/04/17 06:35:57;;;;;;;33.88;21.80;;;8.10;99.90;;;;;;5065125;28;20035;-84
2023/04/17 06:38:22;;;;;;;29.55;21.90;;;8.20;99.90;;;;;;5076847;28;20581;-84
2023/04/17 06:40:48;;;;;;;34.08;22.02;;;8.20;99.90;;;;;;5069987;28;20031;-83
2023/04/17 06:43:16;;;;;;;28.77;20.10;;;8.30;99.90;;;;;;5080125;28;20065;-83
2023/04/17 06:45:42;;;;;;;27.50;19.35;;;8.40;99.90;;;;;;5056352;28;20025;-84
2023/04/17 06:48:08;;;;;;;27.10;19.83;;;8.50;99.90;;;;;;5073897;28;20032;-83
2023/04/17 06:50:33;;;;;;;26.10;19.02;;;8.50;99.90;;;;;;5064134;28;20021;-82
2023/04/17 06:52:59;;;;;;;26.48;19.17;;;8.60;99.90;;;;;;5074047;28;20677;-84
2023/04/17 06:55:26;;;;;;;27.45;19.38;;;8.70;99.90;;;;;;5078163;28;20028;-84
2023/04/17 06:57:51;;;;;;;22.65;17.55;;;8.80;99.90;;;;;;5068273;28;20506;-83
2023/04/17 07:00:17;;;;;;;26.70;17.75;;;9.00;99.90;;;;;;5082527;28;20107;-85
2023/04/17 07:02:43;;;;;;;26.48;18.23;;;9.20;99.90;;;;;;5069489;28;20460;-84
2023/04/17 07:05:09;;;;;;;22.58;17.10;;;9.30;99.90;;;;;;5070161;28;20040;-81
2023/04/17 07:07:35;;;;;;;25.65;17.80;;;9.40;99.90;;;;;;5079617;28;20024;-84
2023/04/17 07:10:02;;;;;;;26.02;18.63;;;9.60;99.90;;;;;;5072620;28;20028;-84
2023/04/17 07:12:28;;;;;;;24.65;16.83;;;9.80;99.90;;;;;;5072263;28;20513;-83
2023/04/17 07:14:53;;;;;;;28.50;16.77;;;9.90;99.90;;;;;;5085607;28;20040;-84
2023/04/17 07:17:19;;;;;;;20.40;15.88;;;10.10;99.90;;;;;;5069882;28;20412;-83
2023/04/17 07:19:44;;;;;;;23.83;16.98;;;10.20;99.90;;;;;;5071384;28;20490;-82
2023/04/17 07:22:10;;;;;;;20.63;15.07;;;10.40;99.90;;;;;;5072892;28;20722;-83
2023/04/17 07:24:35;;;;;;;19.17;14.82;;;10.50;99.90;;;;;;5070883;28;20025;-83
2023/04/17 07:27:02;;;;;;;24.13;14.63;;;10.60;99.90;;;;;;5072384;28;20040;-84
2023/04/17 07:29:28;;;;;;;17.00;13.60;;;10.80;99.90;;;;;;5081750;28;20100;-83
2023/04/17 07:31:54;;;;;;;16.95;13.45;;;11.00;99.90;;;;;;5086337;28;20036;-81
2023/04/17 07:34:20;;;;;;;18.15;14.23;;;11.20;99.90;;;;;;5097890;28;20076;-81
2023/04/17 07:36:48;;;;;;;19.35;13.50;;;11.30;99.90;;;;;;5085530;28;20091;-80
2023/04/17 07:39:14;;;;;;;17.83;14.55;;;11.40;99.90;;;;;;5078949;28;20012;-83
2023/04/17 07:41:39;;;;;;;19.08;14.38;;;11.30;99.90;;;;;;5082481;28;20699;-85
2023/04/17 07:44:05;;;;;;;17.50;13.77;;;11.30;99.90;;;;;;5074596;28;20139;-83
2023/04/17 07:46:31;;;;;;;17.83;13.32;;;11.50;99.90;;;;;;5073902;28;20035;-85
2023/04/17 07:48:58;;;;;;;17.67;13.60;;;11.60;99.90;;;;;;5073520;28;20028;-81
2023/04/17 07:51:23;;;;;;;18.38;13.10;;;11.60;99.90;;;;;;5069452;28;20025;-82
2023/04/17 07:53:49;;;;;;;18.38;13.32;;;11.90;99.90;;;;;;5075594;28;20084;-80
2023/04/17 07:56:16;;;;;;;19.50;14.45;;;12.10;99.90;;;;;;5074774;28;20607;-81
2023/04/17 07:58:43;;;;;;;15.63;12.00;;;12.20;99.90;;;;;;5073022;28;20017;-81
2023/04/17 08:01:09;;;;;;;18.00;12.63;;;12.40;99.90;;;;;;5073101;28;20154;-81
2023/04/17 08:03:35;;;;;;;15.43;12.82;;;12.20;99.90;;;;;;5075914;28;20483;-82
2023/04/17 08:06:00;;;;;;;16.17;12.23;;;12.40;99.90;;;;;;5077701;28;20142;-82
2023/04/17 08:08:26;;;;;;;13.73;11.10;;;12.40;99.90;;;;;;5079915;28;20025;-80
2023/04/17 08:10:52;;;;;;;13.77;11.48;;;12.40;99.90;;;;;;5078463;28;20532;-81
2023/04/17 08:13:17;;;;;;;12.50;11.20;;;12.60;99.90;;;;;;5078087;28;20046;-79
2023/04/17 08:15:44;;;;;;;16.58;11.30;;;12.70;99.90;;;;;;5091254;28;20112;-80
2023/04/17 08:18:10;;;;;;;14.98;12.35;;;12.90;99.90;;;;;;5073485;28;20441;-81
2023/04/17 08:20:36;;;;;;;15.63;12.18;;;13.00;99.90;;;;;;5076821;28;20016;-82
2023/04/17 08:23:03;;;;;;;19.15;12.00;;;13.20;99.90;;;;;;5075172;28;20032;-81
2023/04/17 08:25:29;;;;;;;13.40;10.95;;;13.40;99.90;;;;;;5072407;28;20038;-81
2023/04/17 08:27:55;;;;;;;13.27;10.63;;;13.40;99.90;;;;;;5083781;28;20103;-81
2023/04/17 08:30:21;;;;;;;14.60;11.30;;;13.50;99.90;;;;;;5076244;28;20036;-81
2023/04/17 08:32:48;;;;;;;15.13;10.98;;;13.40;99.90;;;;;;5083029;28;20028;-79
2023/04/17 08:35:14;;;;;;;14.93;10.32;;;13.10;99.90;;;;;;5078168;28;20032;-83
2023/04/17 08:37:41;;;;;;;14.63;12.00;;;13.20;99.90;;;;;;5085476;28;20464;-82
2023/04/17 08:40:08;;;;;;;13.40;11.40;;;13.30;99.90;;;;;;5065189;28;20012;-81
2023/04/17 08:42:35;;;;;;;14.00;11.18;;;13.30;99.90;;;;;;5075263;28;20025;-82
2023/04/17 08:45:06;;;;;;;13.65;11.20;;;13.40;99.90;;;;;;5083141;28;20031;-80
2023/04/17 08:47:33;;;;;;;12.00;10.65;;;13.50;99.90;;;;;;5083661;28;20479;-81
2023/04/17 08:50:05;;;;;;;15.80;10.55;;;13.40;99.90;;;;;;5076532;28;20035;-81
2023/04/17 08:52:31;;;;;;;13.95;10.55;;;13.60;99.90;;;;;;5072356;28;20079;-81
2023/04/17 08:54:57;;;;;;;14.95;10.52;;;13.80;99.90;;;;;;5082270;28;20024;-82
2023/04/17 08:57:22;;;;;;;15.82;11.38;;;14.00;99.90;;;;;;5075314;28;20119;-80
2023/04/17 08:59:48;;;;;;;14.40;10.63;;;13.90;99.90;;;;;;5072942;28;20024;-79
2023/04/17 09:02:13;;;;;;;14.73;10.77;;;14.00;99.90;;;;;;5084057;28;20039;-82
2023/04/17 09:04:46;;;;;;;13.35;10.32;;;14.20;99.90;;;;;;5084330;28;20020;-82
2023/04/17 09:07:14;;;;;;;11.18;9.63;;;14.30;99.90;;;;;;5091880;28;20052;-81
2023/04/17 09:09:46;;;;;;;14.25;9.40;;;14.20;99.90;;;;;;5088608;28;20028;-81
2023/04/17 09:12:11;;;;;;;13.80;9.57;;;14.00;99.90;;;;;;5091335;28;20535;-82
2023/04/17 09:14:37;;;;;;;12.77;10.02;;;14.10;99.90;;;;;;5075531;28;20073;-82
2023/04/17 09:17:02;;;;;;;13.02;9.43;;;14.00;99.90;;;;;;5079298;28;20031;-82
2023/04/17 09:19:28;;;;;;;12.32;8.85;;;14.10;99.90;;;;;;5077868;28;20025;-81
2023/04/17 09:21:54;;;;;;;9.63;8.52;;;14.10;99.90;;;;;;5075412;28;20058;-82
2023/04/17 09:24:33;;;;;;;13.63;9.35;;;14.30;99.90;;;;;;5096621;28;20024;-82
2023/04/17 09:27:21;;;;;;;12.32;8.80;;;14.40;99.90;;;;;;5086042;28;20135;-81
2023/04/17 09:30:04;;;;;;;10.25;8.20;;;14.40;99.90;;;;;;5076868;28;20089;-81
2023/04/17 09:32:31;;;;;;;12.70;9.20;;;14.40;99.90;;;;;;5096659;28;20056;-81
2023/04/17 09:34:59;;;;;;;11.23;9.70;;;14.60;99.90;;;;;;5085365;28;20555;-82
2023/04/17 09:37:32;;;;;;;11.73;9.63;;;14.60;99.90;;;;;;5080790;28;20031;-81
2023/04/17 09:40:00;;;;;;;14.80;10.43;;;14.60;99.90;;;;;;5083595;28;20048;-81
2023/04/17 09:42:26;;;;;;;14.40;10.15;;;14.60;99.90;;;;;;5075305;28;20024;-82
2023/04/17 09:44:56;;;;;;;10.43;9.43;;;14.30;99.90;;;;;;5076262;28;20074;-82
2023/04/17 09:47:22;;;;;;;12.20;10.20;;;14.20;99.90;;;;;;5088032;28;20066;-81
2023/04/17 09:49:51;;;;;;;15.43;10.75;;;14.40;99.90;;;;;;5071561;28;20047;-81
2023/04/17 09:52:22;;;;;;;14.70;11.05;;;14.40;99.90;;;;;;5069804;28;20062;-82
2023/04/17 09:54:50;;;;;;;12.50;10.10;;;14.00;99.90;;;;;;5071566;28;20035;-82
2023/04/17 09:57:16;;;;;;;14.23;10.02;;;14.00;99.90;;;;;;5075184;28;20024;-81
2023/04/17 09:59:49;;;;;;;14.15;10.82;;;14.20;99.90;;;;;;5072949;28;20647;-81
2023/04/17 10:02:20;;;;;;;17.45;11.82;;;14.20;99.90;;;;;;5063999;28;20037;-81
2023/04/17 10:04:46;;;;;;;15.43;11.68;;;14.30;99.90;;;;;;5073826;28;20116;-82
2023/04/17 10:07:13;;;;;;;14.48;11.32;;;14.30;99.90;;;;;;5075542;28;20091;-82
2023/04/17 10:09:40;;;;;;;15.30;12.98;;;14.50;99.90;;;;;;5080934;28;20486;-80
2023/04/17 10:12:11;;;;;;;13.57;11.57;;;14.70;99.90;;;;;;5069336;28;20676;-83
2023/04/17 10:14:39;;;;;;;14.98;11.73;;;14.90;99.90;;;;;;5069899;28;20115;-82
2023/04/17 10:17:24;;;;;;;16.63;12.10;;;15.20;99.90;;;;;;5070483;28;20119;-80
2023/04/17 10:19:50;;;;;;;13.75;10.15;;;15.00;99.90;;;;;;5069145;28;20019;-81
2023/04/17 10:22:18;;;;;;;17.42;12.75;;;14.80;99.90;;;;;;5074804;28;20115;-81
2023/04/17 10:24:46;;;;;;;14.98;11.43;;;14.70;99.90;;;;;;5081094;28;20036;-80
2023/04/17 10:27:41;;;;;;;14.85;13.02;;;14.70;99.90;;;;;;5073208;28;20024;-81
2023/04/17 10:30:09;;;;;;;18.73;12.60;;;14.50;99.90;;;;;;5068829;28;20035;-82
2023/04/17 10:32:35;;;;;;;14.65;11.70;;;14.60;99.90;;;;;;5078173;28;20021;-81
2023/04/17 10:35:22;;;;;;;14.18;12.68;;;14.50;99.90;;;;;;5079435;28;20081;-80
2023/04/17 10:37:50;;;;;;;14.90;11.27;;;14.50;99.90;;;;;;5065482;28;20112;-82
2023/04/17 10:40:23;;;;;;;15.98;11.27;;;14.70;99.90;;;;;;5072578;28;20021;-82
2023/04/17 10:43:19;;;;;;;11.82;10.02;;;14.70;99.90;;;;;;5077501;28;20043;-82
2023/04/17 10:46:00;;;;;;;15.23;10.48;;;14.80;99.90;;;;;;5080170;28;20191;-81
2023/04/17 10:48:37;;;;;;;16.10;10.73;;;15.00;99.90;;;;;;5077301;28;20016;-80
2023/04/17 10:51:22;;;;;;;12.35;9.25;;;14.80;99.90;;;;;;5079431;28;20027;-79
2023/04/17 10:53:48;;;;;;;12.15;9.27;;;14.60;99.90;;;;;;5080606;28;20402;-80
2023/04/17 10:56:22;;;;;;;11.60;9.25;;;14.60;99.90;;;;;;5074817;28;20035;-81
2023/04/17 10:58:58;;;;;;;11.80;9.63;;;14.50;99.90;;;;;;5070935;28;20025;-81
2023/04/17 11:01:30;;;;;;;10.98;8.32;;;14.40;99.90;;;;;;5085899;28;20517;-82
2023/04/17 11:03:58;;;;;;;9.73;7.38;;;14.40;99.10;;;;;;5093719;28;20052;-81
2023/04/17 11:06:30;;;;;;;11.60;7.97;;;14.40;97.50;;;;;;5082597;28;20028;-80
2023/04/17 11:08:56;;;;;;;8.55;6.53;;;14.50;95.20;;;;;;5080712;28;20027;-81
2023/04/17 11:11:21;;;;;;;12.15;6.70;;;14.70;92.90;;;;;;5081437;28;20024;-81
2023/04/17 11:13:47;;;;;;;8.95;6.07;;;14.80;92.60;;;;;;5082020;28;20024;-80
2023/04/17 11:16:18;;;;;;;7.97;5.90;;;14.90;88.60;;;;;;5078696;28;20596;-81
2023/04/17 11:18:44;;;;;;;6.72;5.93;;;15.00;88.20;;;;;;5092197;28;20029;-80
2023/04/17 11:21:11;;;;;;;6.97;5.60;;;15.00;86.90;;;;;;5094814;28;20052;-80
2023/04/17 11:23:37;;;;;;;6.95;6.03;;;14.90;86.30;;;;;;5086384;28;20106;-79
2023/04/17 11:26:03;;;;;;;6.78;5.28;;;14.80;86.50;;;;;;5082971;28;20028;-82
2023/04/17 11:28:29;;;;;;;7.05;4.88;;;14.70;88.70;;;;;;5092415;28;20076;-80
2023/04/17 11:30:54;;;;;;;7.43;5.57;;;14.60;85.10;;;;;;5078108;28;20085;-79
2023/04/17 11:33:20;;;;;;;6.25;5.20;;;14.50;86.10;;;;;;5087904;28;20129;-79
2023/04/17 11:35:46;;;;;;;8.23;5.28;;;14.70;87.50;;;;;;5070283;28;20114;-79
2023/04/17 11:38:19;;;;;;;8.73;4.93;;;14.70;86.00;;;;;;5095108;28;20119;-80
2023/04/17 11:40:49;;;;;;;6.03;5.40;;;14.60;83.90;;;;;;5083720;28;20020;-80
2023/04/17 11:43:16;;;;;;;7.15;5.65;;;14.50;86.20;;;;;;5116122;28;20027;-82
2023/04/17 11:45:44;;;;;;;8.55;5.88;;;14.50;81.10;;;;;;5089230;28;20085;-79
2023/04/17 11:48:11;;;;;;;6.97;5.05;;;14.60;88.40;;;;;;5087986;28;20047;-80
2023/04/17 11:50:38;;;;;;;6.10;5.43;;;14.60;87.50;;;;;;5083511;28;20031;-80
2023/04/17 11:53:04;;;;;;;7.97;5.47;;;14.70;88.00;;;;;;5096002;28;20020;-80
2023/04/17 11:55:30;;;;;;;9.95;6.15;;;14.80;86.90;;;;;;5078251;28;20462;-79
2023/04/17 11:58:01;;;;;;;8.15;5.45;;;14.80;84.30;;;;;;5073076;28;20024;-79
2023/04/17 12:00:30;;;;;;;7.43;6.10;;;14.90;86.60;;;;;;5073388;28;20029;-80
2023/04/17 12:02:57;;;;;;;10.48;6.43;;;14.80;85.00;;;;;;5079267;28;20322;-80
2023/04/17 12:05:25;;;;;;;6.82;5.57;;;14.60;84.30;;;;;;5102186;28;20048;-80
2023/04/17 12:08:04;;;;;;;8.98;7.00;;;14.50;87.60;;;;;;5096883;28;20060;-82
2023/04/17 12:10:41;;;;;;;10.82;6.70;;;14.40;88.90;;;;;;5077808;28;20031;-79
2023/04/17 12:13:07;;;;;;;7.88;6.22;;;14.40;90.10;;;;;;5071033;28;20085;-81
2023/04/17 12:15:34;;;;;;;10.48;6.13;;;14.50;83.20;;;;;;5097224;28;20666;-80
2023/04/17 12:18:04;;;;;;;11.93;6.40;;;14.40;81.80;;;;;;5078540;28;20036;-79
2023/04/17 12:20:33;;;;;;;7.15;6.32;;;14.40;86.70;;;;;;5079107;28;20020;-80
2023/04/17 12:22:59;;;;;;;8.30;6.53;;;14.30;86.90;;;;;;5077897;28;20074;-80
2023/04/17 12:25:24;;;;;;;9.95;7.07;;;14.30;86.10;;;;;;5087496;28;20036;-80
2023/04/17 12:27:50;;;;;;;9.15;6.70;;;14.20;86.80;;;;;;5079544;28;20020;-80
2023/04/17 12:30:15;;;;;;;7.97;5.85;;;14.20;84.60;;;;;;5090402;28;20020;-80
2023/04/17 12:32:47;;;;;;;9.52;6.40;;;14.30;90.00;;;;;;5093821;28;20024;-78
2023/04/17 12:35:15;;;;;;;9.90;6.93;;;14.50;83.40;;;;;;5075836;28;20028;-81